createdAt,value
2019-03-20T00:02:50.464Z,11.00
2019-03-20T00:05:54.905Z,7.37
2019-03-20T00:08:59.338Z,14.97
2019-03-20T00:12:03.774Z,8.73
2019-03-20T00:15:17.603Z,10.17
2019-03-20T00:18:22.043Z,9.70
2019-03-20T00:21:26.855Z,10.10
2019-03-20T00:24:31.285Z,10.77
2019-03-20T00:27:35.729Z,12.87
2019-03-20T00:30:40.432Z,9.40
2019-03-20T00:33:45.165Z,10.60
2019-03-20T00:36:50.005Z,13.13
2019-03-20T00:39:54.433Z,10.27
2019-03-20T00:42:59.150Z,9.03
2019-03-20T00:46:03.599Z,10.77
2019-03-20T00:49:08.023Z,8.33
2019-03-20T00:52:12.464Z,10.47
2019-03-20T00:55:18.445Z,8.10
2019-03-20T00:58:23.214Z,13.17
2019-03-20T01:01:27.946Z,11.13
2019-03-20T01:04:32.370Z,12.10
2019-03-20T01:07:36.812Z,12.77
2019-03-20T01:10:41.626Z,11.97
2019-03-20T01:13:47.382Z,9.80
2019-03-20T01:16:52.115Z,9.50
2019-03-20T01:19:56.840Z,11.10
2019-03-20T01:23:01.285Z,7.63
2019-03-20T01:26:05.995Z,11.90
2019-03-20T01:29:10.723Z,13.10
2019-03-20T01:32:15.462Z,9.80
2019-03-20T01:35:24.043Z,13.73
2019-03-20T01:38:26.363Z,11.27
2019-03-20T01:41:37.890Z,11.93
2019-03-20T01:44:36.962Z,8.77
2019-03-20T01:47:41.399Z,10.03
2019-03-20T01:50:46.096Z,11.37
2019-03-20T01:53:50.709Z,11.63
2019-03-20T01:56:55.455Z,14.23
2019-03-20T01:59:59.886Z,7.73
2019-03-20T02:03:04.692Z,10.07
2019-03-20T02:06:09.448Z,11.13
2019-03-20T02:09:13.890Z,7.73
2019-03-20T02:12:18.594Z,6.57
2019-03-20T02:15:23.020Z,9.00
2019-03-20T02:18:27.457Z,9.63
2019-03-20T02:21:31.887Z,13.60
2019-03-20T02:24:36.597Z,9.10
2019-03-20T02:27:41.195Z,8.97
2019-03-20T02:30:45.958Z,7.63
2019-03-20T02:33:50.686Z,11.17
2019-03-20T02:36:55.442Z,7.87
2019-03-20T02:40:00.505Z,9.40
2019-03-20T02:43:05.139Z,7.83
2019-03-20T02:46:09.558Z,8.23
2019-03-20T02:49:14.063Z,11.87
2019-03-20T02:52:18.514Z,9.87
2019-03-20T02:55:23.182Z,8.40
2019-03-20T02:58:28.025Z,9.10
2019-03-20T03:01:32.458Z,9.93
2019-03-20T03:04:36.893Z,13.70
2019-03-20T03:07:41.395Z,12.37
2019-03-20T03:10:45.824Z,13.87
2019-03-20T03:13:50.547Z,8.93
2019-03-20T03:16:54.977Z,13.90
2019-03-20T03:19:59.409Z,12.43
2019-03-20T03:23:04.537Z,12.67
2019-03-20T03:26:08.970Z,14.37
2019-03-20T03:29:13.408Z,12.90
2019-03-20T03:32:18.223Z,12.77
2019-03-20T03:35:23.569Z,12.27
2019-03-20T03:38:28.297Z,13.63
2019-03-20T03:41:33.042Z,10.53
2019-03-20T03:44:38.278Z,12.33
2019-03-20T03:47:43.329Z,13.20
2019-03-20T03:50:48.552Z,9.07
2019-03-20T03:53:53.144Z,17.47
2019-03-20T03:56:57.579Z,15.23
2019-03-20T04:00:02.330Z,13.63
2019-03-20T04:03:07.057Z,12.03
2019-03-20T04:06:11.790Z,9.40
2019-03-20T04:09:16.234Z,11.03
2019-03-20T04:12:20.946Z,9.80
2019-03-20T04:15:25.388Z,9.37
2019-03-20T04:18:29.828Z,12.97
2019-03-20T04:21:34.277Z,8.93
2019-03-20T04:24:38.715Z,14.03
2019-03-20T04:27:43.155Z,12.03
2019-03-20T04:30:47.588Z,10.87
2019-03-20T04:33:52.257Z,9.37
2019-03-20T04:36:56.686Z,11.60
2019-03-20T04:40:01.132Z,15.70
2019-03-20T04:43:05.699Z,10.33
2019-03-20T04:46:10.371Z,10.20
2019-03-20T04:49:14.810Z,13.03
2019-03-20T04:52:19.247Z,12.90
2019-03-20T04:55:23.678Z,10.03
2019-03-20T04:58:28.117Z,8.73
2019-03-20T05:01:32.847Z,14.03
2019-03-20T05:04:37.292Z,10.13
2019-03-20T05:07:41.739Z,12.27
2019-03-20T05:10:46.424Z,10.13
2019-03-20T05:13:50.855Z,9.73
2019-03-20T05:16:55.294Z,7.70
2019-03-20T05:19:59.732Z,11.67
2019-03-20T05:23:04.158Z,10.37
2019-03-20T05:26:08.596Z,10.27
2019-03-20T05:29:13.279Z,9.53
2019-03-20T05:32:19.628Z,11.93
2019-03-20T05:35:24.172Z,9.70
2019-03-20T05:38:28.598Z,7.40
2019-03-20T05:41:33.046Z,10.17
2019-03-20T05:44:37.474Z,11.67
2019-03-20T05:47:41.912Z,9.33
2019-03-20T05:50:46.600Z,11.63
2019-03-20T05:53:51.031Z,10.13
2019-03-20T05:56:55.468Z,11.40
2019-03-20T05:59:59.893Z,14.60
2019-03-20T06:03:04.399Z,9.63
2019-03-20T06:06:09.128Z,12.93
2019-03-20T06:09:13.584Z,16.77
2019-03-20T06:12:18.278Z,14.63
2019-03-20T06:15:24.600Z,14.17
2019-03-20T06:18:29.220Z,10.23
2019-03-20T06:21:33.665Z,12.00
2019-03-20T06:24:38.439Z,21.03
2019-03-20T06:27:42.879Z,16.37
2019-03-20T06:30:47.313Z,13.40
2019-03-20T06:33:52.018Z,16.00
2019-03-20T06:36:56.450Z,18.83
2019-03-20T06:40:00.879Z,12.63
2019-03-20T06:43:05.317Z,20.70
2019-03-20T06:46:10.011Z,13.37
2019-03-20T06:49:14.445Z,14.83
2019-03-20T06:52:18.901Z,16.10
2019-03-20T06:55:23.583Z,18.43
2019-03-20T06:58:28.037Z,12.03
2019-03-20T07:01:32.534Z,17.00
2019-03-20T07:05:12.825Z,14.07
2019-03-20T07:08:19.770Z,13.32
2019-03-20T07:11:22.645Z,13.78
2019-03-20T07:14:27.106Z,15.85
2019-03-20T07:17:31.556Z,11.70
2019-03-20T07:20:37.634Z,15.00
2019-03-20T07:23:42.090Z,13.60
2019-03-20T07:26:47.965Z,14.77
2019-03-20T07:29:52.401Z,13.13
2019-03-20T07:32:56.871Z,13.90
2019-03-20T07:36:01.265Z,14.53
2019-03-20T07:39:10.122Z,16.87
2019-03-20T07:42:14.549Z,13.80
2019-03-20T07:45:18.980Z,22.37
2019-03-20T07:48:23.423Z,19.90
2019-03-20T07:51:27.848Z,20.83
2019-03-20T07:54:32.296Z,19.20
2019-03-20T07:57:36.730Z,14.03
2019-03-20T08:00:41.162Z,16.07
2019-03-20T08:03:45.962Z,22.53
2019-03-20T08:06:50.693Z,17.90
2019-03-20T08:09:55.525Z,18.27
2019-03-20T08:13:00.360Z,13.43
2019-03-20T08:16:04.788Z,16.73
2019-03-20T08:19:09.229Z,15.33
2019-03-20T08:22:13.934Z,18.53
2019-03-20T08:25:18.357Z,21.13
2019-03-20T08:28:23.040Z,15.67
2019-03-20T08:31:27.462Z,15.80
2019-03-20T08:34:33.578Z,20.73
2019-03-20T08:37:38.026Z,16.47
2019-03-20T08:40:42.507Z,15.70
2019-03-20T08:43:47.303Z,11.90
2019-03-20T08:46:51.756Z,16.17
2019-03-20T08:49:56.231Z,9.87
2019-03-20T08:53:00.650Z,13.20
2019-03-20T08:56:05.152Z,12.80
2019-03-20T08:59:09.921Z,12.53
2019-03-20T09:02:14.647Z,11.93
2019-03-20T09:05:19.144Z,13.57
2019-03-20T09:08:29.308Z,9.87
2019-03-20T09:11:29.784Z,12.03
2019-03-20T09:14:34.598Z,10.33
2019-03-20T09:17:39.064Z,12.57
2019-03-20T09:20:43.927Z,12.00
2019-03-20T09:23:48.655Z,11.47
2019-03-20T09:26:53.098Z,9.77
2019-03-20T09:29:57.542Z,16.50
2019-03-20T09:33:01.986Z,15.17
2019-03-20T09:36:06.760Z,11.17
2019-03-20T09:39:11.207Z,10.83
2019-03-20T09:42:15.645Z,8.57
2019-03-20T09:45:21.800Z,10.57
2019-03-20T09:48:26.247Z,9.80
2019-03-20T09:51:30.677Z,11.77
2019-03-20T09:54:35.450Z,11.57
2019-03-20T09:57:40.183Z,10.90
2019-03-20T10:00:44.621Z,7.23
2019-03-20T10:03:49.065Z,7.73
2019-03-20T10:06:53.864Z,8.07
2019-03-20T10:09:58.306Z,7.60
2019-03-20T10:13:02.791Z,6.77
2019-03-20T10:16:07.290Z,6.53
2019-03-20T10:19:11.805Z,8.67
2019-03-20T10:22:16.494Z,7.47
2019-03-20T10:25:20.947Z,5.50
2019-03-20T10:28:25.639Z,9.87
2019-03-20T10:31:30.097Z,8.77
2019-03-20T10:34:39.413Z,8.00
2019-03-20T10:37:41.106Z,5.63
2019-03-20T10:40:45.939Z,10.20
2019-03-20T10:43:52.367Z,7.30
2019-03-20T10:46:57.031Z,9.17
2019-03-20T10:50:01.879Z,7.00
2019-03-20T10:53:06.358Z,8.90
2019-03-20T10:56:10.836Z,7.00
2019-03-20T10:59:15.679Z,8.97
2019-03-20T11:02:20.483Z,5.80
2019-03-20T11:05:24.967Z,7.67
2019-03-20T11:08:29.446Z,8.30
2019-03-20T11:11:33.923Z,6.27
2019-03-20T11:14:38.689Z,10.13
2019-03-20T11:17:43.540Z,7.23
2019-03-20T11:20:48.006Z,7.50
2019-03-20T11:23:52.482Z,7.20
2019-03-20T11:26:56.967Z,7.17
2019-03-20T11:30:01.735Z,7.73
2019-03-20T11:33:06.282Z,12.77
2019-03-20T11:36:11.090Z,8.07
2019-03-20T11:39:15.641Z,6.70
2019-03-20T11:42:20.449Z,8.37
2019-03-20T11:45:25.282Z,6.63
2019-03-20T11:48:29.765Z,9.27
2019-03-20T11:51:34.249Z,6.17
2019-03-20T11:54:38.737Z,7.30
2019-03-20T11:57:43.209Z,6.33
2019-03-20T12:00:48.011Z,8.53
2019-03-20T12:03:52.950Z,10.67
2019-03-20T12:06:57.516Z,11.80
2019-03-20T12:10:01.997Z,11.47
2019-03-20T12:13:06.552Z,5.03
2019-03-20T12:16:11.029Z,5.67
2019-03-20T12:19:15.783Z,6.17
2019-03-20T12:22:20.617Z,8.93
2019-03-20T12:25:36.363Z,6.50
2019-03-20T12:28:41.139Z,6.63
2019-03-20T12:31:45.970Z,8.17
2019-03-20T12:34:50.450Z,5.90
2019-03-20T12:37:54.935Z,6.07
2019-03-20T12:40:59.758Z,7.07
2019-03-20T12:44:04.595Z,7.23
2019-03-20T12:47:09.076Z,5.83
2019-03-20T12:50:14.563Z,8.97
2019-03-20T12:53:32.155Z,6.57
2019-03-20T12:56:36.633Z,6.53
2019-03-20T12:59:41.117Z,6.33
2019-03-20T13:02:45.871Z,7.10
2019-03-20T13:05:50.346Z,6.03
2019-03-20T13:08:55.131Z,7.83
2019-03-20T13:11:59.962Z,5.77
2019-03-20T13:15:06.920Z,5.63
2019-03-20T13:18:11.393Z,8.93
2019-03-20T13:21:16.207Z,7.83
2019-03-20T13:24:20.671Z,7.13
2019-03-20T13:27:25.157Z,6.63
2019-03-20T13:30:42.823Z,5.17
2019-03-20T13:33:49.212Z,4.07
2019-03-20T13:36:53.779Z,7.13
2019-03-20T13:39:58.625Z,3.53
2019-03-20T13:43:03.098Z,6.10
2019-03-20T13:46:07.875Z,5.37
2019-03-20T13:49:12.703Z,3.57
2019-03-20T13:52:17.188Z,8.00
2019-03-20T13:55:21.658Z,5.20
2019-03-20T13:58:26.491Z,6.47
2019-03-20T14:01:31.319Z,6.80
2019-03-20T14:04:36.156Z,4.93
2019-03-20T14:07:40.707Z,6.00
2019-03-20T14:10:50.436Z,7.47
2019-03-20T14:13:51.402Z,5.73
2019-03-20T14:16:56.208Z,6.93
2019-03-20T14:20:00.677Z,5.73
2019-03-20T14:23:05.173Z,6.47
2019-03-20T14:26:09.655Z,4.90
2019-03-20T14:29:14.130Z,5.50
2019-03-20T14:32:18.878Z,7.17
2019-03-20T14:35:23.671Z,4.67
2019-03-20T14:38:28.157Z,7.37
2019-03-20T14:41:32.926Z,4.23
2019-03-20T14:44:37.408Z,6.53
2019-03-20T14:47:42.466Z,6.00
2019-03-20T14:50:47.626Z,9.80
2019-03-20T14:53:52.111Z,7.70
2019-03-20T14:56:56.905Z,9.37
2019-03-20T15:00:01.377Z,6.47
2019-03-20T15:03:06.152Z,5.90
2019-03-20T15:06:10.977Z,5.17
2019-03-20T15:09:15.461Z,6.83
2019-03-20T15:12:19.994Z,10.30
2019-03-20T15:15:31.268Z,8.17
2019-03-20T15:18:36.038Z,8.93
2019-03-20T15:21:40.881Z,5.13
2019-03-20T15:24:45.353Z,9.17
2019-03-20T15:27:49.903Z,9.70
2019-03-20T15:30:54.770Z,7.03
2019-03-20T15:33:59.259Z,4.87
2019-03-20T15:37:03.738Z,9.87
2019-03-20T15:40:15.227Z,6.20
2019-03-20T15:43:19.713Z,6.90
2019-03-20T15:46:24.462Z,5.90
2019-03-20T15:49:29.286Z,6.80
2019-03-20T15:52:33.769Z,8.23
2019-03-20T15:55:41.932Z,7.27
2019-03-20T15:58:46.756Z,5.43
2019-03-20T16:01:51.227Z,7.83
2019-03-20T16:04:56.014Z,8.87
2019-03-20T16:08:00.497Z,6.13
2019-03-20T16:11:06.818Z,6.10
2019-03-20T16:14:11.636Z,7.60
2019-03-20T16:17:16.124Z,6.20
2019-03-20T16:20:20.600Z,6.97
2019-03-20T16:23:25.091Z,10.23
2019-03-20T16:26:29.576Z,5.67
2019-03-20T16:29:34.300Z,7.97
2019-03-20T16:32:39.125Z,7.33
2019-03-20T16:35:43.839Z,5.03
2019-03-20T16:38:48.575Z,9.53
2019-03-20T16:41:53.058Z,8.03
2019-03-20T16:44:58.751Z,7.63
2019-03-20T16:48:03.234Z,6.17
2019-03-20T16:51:07.743Z,8.90
2019-03-20T16:54:12.523Z,6.40
2019-03-20T16:57:17.399Z,11.73
2019-03-20T17:00:29.783Z,6.70
2019-03-20T17:03:34.604Z,4.67
2019-03-20T17:06:39.437Z,9.13
2019-03-20T17:09:44.266Z,5.87
2019-03-20T17:12:49.101Z,6.20
2019-03-20T17:15:53.585Z,7.23
2019-03-20T17:18:58.072Z,11.63
2019-03-20T17:22:02.590Z,6.90
2019-03-20T17:25:10.739Z,4.57
2019-03-20T17:28:15.225Z,12.00
2019-03-20T17:31:20.046Z,7.70
2019-03-20T17:34:24.880Z,10.50
2019-03-20T17:37:29.357Z,5.23
2019-03-20T17:40:33.839Z,9.27
2019-03-20T17:43:38.665Z,7.43
2019-03-20T17:46:43.500Z,6.37
2019-03-20T17:49:48.330Z,6.93
2019-03-20T17:52:52.827Z,6.30
2019-03-20T17:55:57.307Z,7.13
2019-03-20T17:59:02.218Z,4.77
2019-03-20T18:02:06.689Z,6.77
2019-03-20T18:05:11.237Z,5.83
2019-03-20T18:08:15.716Z,6.80
2019-03-20T18:11:20.191Z,7.33
2019-03-20T18:14:24.953Z,6.87
2019-03-20T18:17:29.772Z,7.80
2019-03-20T18:20:34.614Z,5.63
2019-03-20T18:23:39.447Z,10.03
2019-03-20T18:26:43.955Z,5.83
2019-03-20T18:29:48.460Z,6.67
2019-03-20T18:32:53.325Z,6.07
2019-03-20T18:35:58.157Z,8.13
2019-03-20T18:39:02.887Z,13.17
2019-03-20T18:42:09.517Z,7.97
2019-03-20T18:45:22.314Z,7.53
2019-03-20T18:48:26.979Z,9.53
2019-03-20T18:51:31.650Z,6.23
2019-03-20T18:54:36.135Z,8.50
2019-03-20T18:57:40.871Z,5.47
2019-03-20T19:00:45.317Z,10.17
2019-03-20T19:03:50.018Z,7.63
2019-03-20T19:06:54.469Z,5.30
2019-03-20T19:09:58.981Z,8.13
2019-03-20T19:13:03.423Z,8.60
2019-03-20T19:16:07.931Z,16.33
2019-03-20T19:19:12.363Z,10.47
2019-03-20T19:22:17.082Z,10.23
2019-03-20T19:25:21.515Z,7.90
2019-03-20T19:28:25.942Z,10.63
2019-03-20T19:31:30.758Z,6.50
2019-03-20T19:34:35.493Z,10.33
2019-03-20T19:37:39.911Z,6.80
2019-03-20T19:40:44.341Z,6.00
2019-03-20T19:43:48.767Z,8.33
2019-03-20T19:46:53.483Z,9.13
2019-03-20T19:49:57.922Z,10.33
2019-03-20T19:53:02.364Z,8.53
2019-03-20T19:56:06.822Z,6.17
2019-03-20T19:59:11.588Z,8.40
2019-03-20T20:02:16.020Z,8.17
2019-03-20T20:05:20.461Z,9.57
2019-03-20T20:08:25.171Z,10.53
2019-03-20T20:11:29.604Z,9.97
2019-03-20T20:14:34.028Z,6.57
2019-03-20T20:17:38.467Z,10.10
2019-03-20T20:20:42.910Z,7.23
2019-03-20T20:23:47.340Z,7.43
2019-03-20T20:26:51.780Z,11.33
2019-03-20T20:29:56.207Z,10.67
2019-03-20T20:33:00.648Z,11.00
2019-03-20T20:36:05.086Z,9.13
2019-03-20T20:39:09.520Z,10.03
2019-03-20T20:42:14.230Z,7.23
2019-03-20T20:45:18.727Z,12.83
2019-03-20T20:48:23.220Z,12.13
2019-03-20T20:51:27.604Z,14.00
2019-03-20T20:54:32.076Z,8.67
2019-03-20T20:57:36.518Z,10.90
2019-03-20T21:00:40.946Z,8.40
2019-03-20T21:03:45.724Z,13.43
2019-03-20T21:06:50.151Z,11.97
2019-03-20T21:09:54.584Z,7.87
2019-03-20T21:12:59.047Z,10.70
2019-03-20T21:16:03.563Z,10.17
2019-03-20T21:19:36.049Z,9.40
2019-03-20T21:23:20.418Z,11.90
2019-03-20T21:26:44.076Z,9.17
2019-03-20T21:30:18.811Z,10.60
2019-03-20T21:33:55.899Z,11.37
2019-03-20T21:37:07.870Z,7.20
2019-03-20T21:40:14.805Z,7.90
2019-03-20T21:43:57.196Z,12.23
2019-03-20T21:47:35.364Z,12.23
2019-03-20T21:51:02.191Z,6.23
2019-03-20T21:54:17.491Z,7.90
2019-03-20T21:57:35.130Z,7.80
2019-03-20T22:01:23.785Z,6.57
2019-03-20T22:04:28.225Z,7.57
2019-03-20T22:07:32.944Z,11.13
2019-03-20T22:11:01.836Z,11.20
2019-03-20T22:14:12.820Z,11.33
2019-03-20T22:17:51.158Z,8.37
2019-03-20T22:21:18.401Z,9.47
2019-03-20T22:24:49.656Z,8.70
2019-03-20T22:28:21.057Z,9.67
2019-03-20T22:31:26.902Z,8.73
2019-03-20T22:35:12.335Z,8.37
2019-03-20T22:38:30.591Z,11.50
2019-03-20T22:41:58.931Z,8.80
2019-03-20T22:45:24.743Z,8.90
2019-03-20T22:49:08.751Z,8.73
2019-03-20T22:52:26.812Z,10.23
2019-03-20T22:55:38.718Z,14.40
2019-03-20T22:58:49.262Z,8.23
2019-03-20T23:02:09.764Z,9.27
2019-03-20T23:05:14.487Z,9.57
2019-03-20T23:08:19.221Z,10.00
2019-03-20T23:11:23.665Z,11.33
2019-03-20T23:14:28.368Z,12.93
2019-03-20T23:17:32.800Z,13.37
2019-03-20T23:20:37.302Z,11.70
2019-03-20T23:23:42.057Z,13.43
2019-03-20T23:26:46.794Z,10.93
2019-03-20T23:29:51.229Z,9.27
2019-03-20T23:32:55.672Z,11.20
2019-03-20T23:36:00.106Z,10.63
2019-03-20T23:39:06.920Z,12.57
2019-03-20T23:42:11.346Z,8.13
2019-03-20T23:45:19.286Z,9.67
2019-03-20T23:48:34.234Z,6.70
2019-03-20T23:51:38.666Z,11.17
2019-03-20T23:54:47.609Z,9.53
2019-03-20T23:57:52.032Z,16.03
